Terminal Aerodrome Forecast
Issued by NWS Grand Forks, ND

Home | Current Version | Previous Version | Graphics & Text | Print | Product List | Glossary On
Versions: 1 2 3 4 5 6 7 8 9 10 11 12 13 14 15 16 17 18 19 20 21 22 23 24
364
FTUS43 KFGF 221910 AAB
TAFGFK
TAF AMD
KGFK 221910Z 2219/2318 36013G19KT P6SM BKN020
     FM230100 02012KT P6SM OVC020
     FM230700 01009KT 5SM -RASN OVC012
     FM230900 01010KT 1SM -SN OVC012
     FM231600 06011KT P6SM OVC025=

USA.gov is the U.S. government's official web portal to all federal, state and local government web resources and services.